Birch Creek GC
600 E Center St, Smithfield
Last Weather Update:03/29/2012 12:00:00 PM
Date
ETo
ETc
Rain
Irrigation
Req
Temp
Max
Temp
Min
Temp
Avg
Avg RH
Avg Wind
Avg Solar
inches
inches
incehs
inches
F
F
F
%
%
watts/m2
02/01/2012 0.03" 0.00" 0.00" 0.00" 41.2° 24.5° 31.8° 81.4% 3.2 MPH 86.1w/m2
02/02/2012 0.04" 0.00" 0.00" 0.00" 37.3° 29.1° 32.2° 93.1% 4.9 MPH 113.9w/m2
02/03/2012 0.04" 0.00" 0.00" 0.00" 40.8° 22.8° 30.7° 54.2% 3.8 MPH 111.0w/m2
02/04/2012 0.05" 0.00" 0.00" 0.00" 39.2° 22.9° 30.3° 65.6% 3.9 MPH 135.4w/m2
02/05/2012 0.03" 0.00" 0.00" 0.00" 33.5° 20.1° 26.9° 66.6% 3.3 MPH 96.9w/m2
02/06/2012 0.05" 0.00" 0.00" 0.00" 38.6° 17.4° 26.7° 67.0% 3.2 MPH 153.2w/m2
02/07/2012 0.05" 0.00" 0.00" 0.00" 41.2° 20.3° 28.6° 64.5% 3.6 MPH 151.7w/m2
02/08/2012 0.02" 0.00" 0.03" -0.02" 36.6° 26.8° 30.8° 95.5% 2.1 MPH 49.3w/m2
02/09/2012 0.02" 0.00" 0.01" -0.01" 36.9° 30.3° 33.7° 88.6% 2.4 MPH 28.4w/m2
02/10/2012 0.03" 0.00" 0.04" -0.03" 46.8° 32.0° 37.2° 79.1% 2.8 MPH 66.0w/m2
02/11/2012 0.03" 0.00" 0.00" 0.00" 44.9° 30.4° 36.7° 80.6% 2.8 MPH 79.2w/m2
02/12/2012 0.02" 0.00" 0.00" 0.00" 39.2° 30.9° 34.7° 96.7% 2.9 MPH 32.2w/m2
02/13/2012 0.05" 0.00" 0.08" -0.06" 44.2° 29.1° 34.1° 73.9% 2.4 MPH 139.1w/m2
02/14/2012 0.04" 0.00" 0.00" 0.00" 41.0° 25.5° 31.4° 97.5% 3.3 MPH 122.8w/m2
02/15/2012 0.03" 0.00" 0.05" -0.04" 38.7° 27.8° 31.4° 72.9% 3.9 MPH 100.5w/m2
02/16/2012 0.05" 0.00" 0.00" 0.00" 39.0° 21.5° 28.9° 67.2% 3.0 MPH 174.0w/m2
02/17/2012 0.04" 0.00" 0.00" 0.00" 39.8° 24.6° 30.7° 85.5% 2.7 MPH 94.9w/m2
02/18/2012 0.04" 0.00" 0.01" -0.01" 42.0° 23.4° 31.8° 100.0% 2.9 MPH 115.1w/m2
02/19/2012 0.03" 0.00" 0.14" -0.11" 31.1° 18.7° 25.2° 85.4% 1.9 MPH 142.3w/m2
02/20/2012 0.05" 0.00" 0.00" 0.00" 33.1° 12.7° 25.3° 63.6% 4.1 MPH 132.9w/m2
02/21/2012 0.03" 0.00" 0.04" -0.03" 40.1° 30.1° 34.6° 82.8% 6.4 MPH 62.8w/m2
02/22/2012 0.06" 0.00" 0.00" 0.00" 50.1° 38.1° 44.1° 53.1% 7.1 MPH 25.7w/m2
02/23/2012 0.06" 0.00" 0.00" 0.00" 38.2° 25.3° 31.2° 53.9% 4.7 MPH 124.1w/m2
02/24/2012 0.08" 0.00" 0.00" 0.00" 42.0° 23.0° 31.9° 62.8% 4.7 MPH 191.0w/m2
02/25/2012 0.05" 0.00" 0.00" 0.00" 37.5° 22.2° 29.5° 65.4% 6.4 MPH 97.1w/m2
02/26/2012 0.05" 0.00" 0.00" 0.00" 33.7° 21.5° 25.9° 56.0% 3.7 MPH 142.2w/m2
02/27/2012 0.04" 0.00" 0.00" 0.00" 43.5° 20.9° 29.6° 71.6% 3.5 MPH 88.7w/m2
02/28/2012 0.04" 0.00" 0.06" -0.05" 33.5° 25.9° 29.2° 61.7% 4.2 MPH 114.1w/m2
02/29/2012 0.04" 0.00" 0.01" -0.01" 41.4° 18.8° 29.9° 87.3% 6.2 MPH 57.5w/m2
Totals: 1.20" 0.00" 0.47" -0.38" 50.1° 12.7° 31.2° 74.9% 3.8 MPH 104.4w/m2